sensor_id;sensor_type;location;lat;lon;timestamp;temperature;humidity
30385;DHT22;17181;51.002;4.096;2023-10-09T00:01:05;17.30;99.80
30385;DHT22;17181;51.002;4.096;2023-10-09T00:03:40;17.20;99.90
30385;DHT22;17181;51.002;4.096;2023-10-09T00:06:07;17.20;99.90
30385;DHT22;17181;51.002;4.096;2023-10-09T00:08:33;17.20;99.90
30385;DHT22;17181;51.002;4.096;2023-10-09T00:11:03;17.30;99.90
30385;DHT22;17181;51.002;4.096;2023-10-09T00:13:43;17.30;99.90
30385;DHT22;17181;51.002;4.096;2023-10-09T00:16:20;17.30;99.90
30385;DHT22;17181;51.002;4.096;2023-10-09T00:19:09;17.40;99.90
30385;DHT22;17181;51.002;4.096;2023-10-09T00:21:45;17.40;99.90
30385;DHT22;17181;51.002;4.096;2023-10-09T00:24:11;17.40;99.90
30385;DHT22;17181;51.002;4.096;2023-10-09T00:26:46;17.60;99.90
30385;DHT22;17181;51.002;4.096;2023-10-09T00:29:15;17.60;99.90
30385;DHT22;17181;51.002;4.096;2023-10-09T00:31:54;17.60;99.90
30385;DHT22;17181;51.002;4.096;2023-10-09T00:34:29;17.50;99.90
30385;DHT22;17181;51.002;4.096;2023-10-09T00:36:55;17.50;99.90
30385;DHT22;17181;51.002;4.096;2023-10-09T00:39:23;17.60;99.90
30385;DHT22;17181;51.002;4.096;2023-10-09T00:42:11;17.60;99.90
30385;DHT22;17181;51.002;4.096;2023-10-09T00:44:41;17.60;99.90
30385;DHT22;17181;51.002;4.096;2023-10-09T00:47:12;17.70;99.90
30385;DHT22;17181;51.002;4.096;2023-10-09T00:50:08;17.70;99.80
30385;DHT22;17181;51.002;4.096;2023-10-09T00:52:50;17.70;99.70
30385;DHT22;17181;51.002;4.096;2023-10-09T00:55:31;17.70;99.70
30385;DHT22;17181;51.002;4.096;2023-10-09T00:58:11;17.60;99.60
30385;DHT22;17181;51.002;4.096;2023-10-09T01:00:39;17.70;99.70
30385;DHT22;17181;51.002;4.096;2023-10-09T01:03:16;17.60;99.60
30385;DHT22;17181;51.002;4.096;2023-10-09T01:05:43;17.60;99.60
30385;DHT22;17181;51.002;4.096;2023-10-09T01:08:19;17.60;99.60
30385;DHT22;17181;51.002;4.096;2023-10-09T01:10:59;17.60;99.70
30385;DHT22;17181;51.002;4.096;2023-10-09T01:13:44;17.60;99.70
30385;DHT22;17181;51.002;4.096;2023-10-09T01:16:14;17.60;99.60
30385;DHT22;17181;51.002;4.096;2023-10-09T01:18:47;17.60;99.60
30385;DHT22;17181;51.002;4.096;2023-10-09T01:21:18;17.70;99.70
30385;DHT22;17181;51.002;4.096;2023-10-09T01:23:47;17.60;99.70
30385;DHT22;17181;51.002;4.096;2023-10-09T01:26:29;17.60;99.80
30385;DHT22;17181;51.002;4.096;2023-10-09T01:29:01;17.50;99.80
30385;DHT22;17181;51.002;4.096;2023-10-09T01:31:27;17.60;99.80
30385;DHT22;17181;51.002;4.096;2023-10-09T01:34:05;17.60;99.80
30385;DHT22;17181;51.002;4.096;2023-10-09T01:36:41;17.50;99.80
30385;DHT22;17181;51.002;4.096;2023-10-09T01:39:07;17.50;99.90
30385;DHT22;17181;51.002;4.096;2023-10-09T01:41:50;17.50;99.80
30385;DHT22;17181;51.002;4.096;2023-10-09T01:44:27;17.60;99.90
30385;DHT22;17181;51.002;4.096;2023-10-09T01:46:57;17.60;99.90
30385;DHT22;17181;51.002;4.096;2023-10-09T01:49:24;17.40;99.90
30385;DHT22;17181;51.002;4.096;2023-10-09T01:51:57;17.60;99.90
30385;DHT22;17181;51.002;4.096;2023-10-09T01:54:36;17.40;99.90
30385;DHT22;17181;51.002;4.096;2023-10-09T01:57:07;17.60;99.90
30385;DHT22;17181;51.002;4.096;2023-10-09T01:59:48;17.60;99.90
30385;DHT22;17181;51.002;4.096;2023-10-09T02:02:19;17.60;99.90
30385;DHT22;17181;51.002;4.096;2023-10-09T02:05:05;17.60;99.90
30385;DHT22;17181;51.002;4.096;2023-10-09T02:07:41;17.60;99.90
30385;DHT22;17181;51.002;4.096;2023-10-09T02:10:13;17.60;99.90
30385;DHT22;17181;51.002;4.096;2023-10-09T02:12:52;17.70;99.90
30385;DHT22;17181;51.002;4.096;2023-10-09T02:15:26;17.70;99.80
30385;DHT22;17181;51.002;4.096;2023-10-09T02:18:21;17.70;99.80
30385;DHT22;17181;51.002;4.096;2023-10-09T02:23:25;17.70;99.70
30385;DHT22;17181;51.002;4.096;2023-10-09T02:25:58;17.70;99.70
30385;DHT22;17181;51.002;4.096;2023-10-09T02:28:27;17.70;99.70
30385;DHT22;17181;51.002;4.096;2023-10-09T02:30:58;17.70;99.70
30385;DHT22;17181;51.002;4.096;2023-10-09T02:33:28;17.70;99.70
30385;DHT22;17181;51.002;4.096;2023-10-09T02:35:57;17.70;99.70
30385;DHT22;17181;51.002;4.096;2023-10-09T13:15:58;23.20;95.60
30385;DHT22;17181;51.002;4.096;2023-10-09T13:18:25;23.20;95.80
30385;DHT22;17181;51.002;4.096;2023-10-09T13:20:51;23.30;95.70
30385;DHT22;17181;51.002;4.096;2023-10-09T13:23:17;23.50;95.70
30385;DHT22;17181;51.002;4.096;2023-10-09T13:25:42;23.50;95.50
30385;DHT22;17181;51.002;4.096;2023-10-09T13:28:10;23.50;95.40
30385;DHT22;17181;51.002;4.096;2023-10-09T13:30:38;23.50;95.50
30385;DHT22;17181;51.002;4.096;2023-10-09T13:33:15;23.50;95.30
30385;DHT22;17181;51.002;4.096;2023-10-09T13:35:42;23.60;95.20
30385;DHT22;17181;51.002;4.096;2023-10-09T13:38:16;23.60;95.10
30385;DHT22;17181;51.002;4.096;2023-10-09T13:40:42;23.50;95.20
30385;DHT22;17181;51.002;4.096;2023-10-09T13:43:08;23.50;95.10
30385;DHT22;17181;51.002;4.096;2023-10-09T13:45:42;23.50;95.20
30385;DHT22;17181;51.002;4.096;2023-10-09T13:48:22;23.50;95.20
30385;DHT22;17181;51.002;4.096;2023-10-09T13:50:51;23.40;95.20
30385;DHT22;17181;51.002;4.096;2023-10-09T13:53:23;23.60;95.00
30385;DHT22;17181;51.002;4.096;2023-10-09T13:55:52;23.60;95.30
30385;DHT22;17181;51.002;4.096;2023-10-09T13:58:21;23.70;95.20
30385;DHT22;17181;51.002;4.096;2023-10-09T14:00:47;23.80;95.30
30385;DHT22;17181;51.002;4.096;2023-10-09T14:03:15;23.90;95.20
30385;DHT22;17181;51.002;4.096;2023-10-09T14:05:45;23.90;95.00
30385;DHT22;17181;51.002;4.096;2023-10-09T19:47:10;17.20;97.60
30385;DHT22;17181;51.002;4.096;2023-10-09T19:49:36;17.20;97.70
30385;DHT22;17181;51.002;4.096;2023-10-09T19:52:06;17.20;97.90
30385;DHT22;17181;51.002;4.096;2023-10-09T19:54:32;17.10;98.00
30385;DHT22;17181;51.002;4.096;2023-10-09T19:57:01;17.10;98.20
30385;DHT22;17181;51.002;4.096;2023-10-09T19:59:28;17.10;98.30
30385;DHT22;17181;51.002;4.096;2023-10-09T20:01:54;17.10;98.40
30385;DHT22;17181;51.002;4.096;2023-10-09T20:04:20;17.10;98.40
30385;DHT22;17181;51.002;4.096;2023-10-09T20:06:48;17.00;98.50
30385;DHT22;17181;51.002;4.096;2023-10-09T20:09:14;17.00;98.50
30385;DHT22;17181;51.002;4.096;2023-10-09T20:11:42;16.90;98.40
30385;DHT22;17181;51.002;4.096;2023-10-09T20:14:08;16.90;98.40
30385;DHT22;17181;51.002;4.096;2023-10-09T20:16:34;16.80;98.50
30385;DHT22;17181;51.002;4.096;2023-10-09T20:19:03;16.80;98.70
30385;DHT22;17181;51.002;4.096;2023-10-09T20:21:37;16.70;98.70
30385;DHT22;17181;51.002;4.096;2023-10-09T20:24:03;16.70;98.80
30385;DHT22;17181;51.002;4.096;2023-10-09T20:26:30;16.70;98.80
30385;DHT22;17181;51.002;4.096;2023-10-09T20:28:56;16.60;98.90
30385;DHT22;17181;51.002;4.096;2023-10-09T20:31:22;16.60;98.80
30385;DHT22;17181;51.002;4.096;2023-10-09T20:33:49;16.50;98.80
30385;DHT22;17181;51.002;4.096;2023-10-09T20:36:17;16.50;98.90
30385;DHT22;17181;51.002;4.096;2023-10-09T20:38:47;16.40;99.00
30385;DHT22;17181;51.002;4.096;2023-10-09T20:41:15;16.40;99.10
30385;DHT22;17181;51.002;4.096;2023-10-09T20:43:41;16.30;99.10
30385;DHT22;17181;51.002;4.096;2023-10-09T20:46:10;16.30;99.30
30385;DHT22;17181;51.002;4.096;2023-10-09T20:48:41;16.30;99.20
30385;DHT22;17181;51.002;4.096;2023-10-09T20:51:11;16.40;99.40
30385;DHT22;17181;51.002;4.096;2023-10-09T20:53:38;16.30;99.40
30385;DHT22;17181;51.002;4.096;2023-10-09T20:56:05;16.30;99.50
30385;DHT22;17181;51.002;4.096;2023-10-09T20:58:32;16.30;99.60
30385;DHT22;17181;51.002;4.096;2023-10-09T21:00:59;16.30;99.60
30385;DHT22;17181;51.002;4.096;2023-10-09T21:03:27;16.20;99.60
30385;DHT22;17181;51.002;4.096;2023-10-09T21:05:55;16.20;99.60
30385;DHT22;17181;51.002;4.096;2023-10-09T21:08:25;16.10;99.60
30385;DHT22;17181;51.002;4.096;2023-10-09T21:10:51;16.20;99.60
30385;DHT22;17181;51.002;4.096;2023-10-09T21:13:17;16.00;99.60
30385;DHT22;17181;51.002;4.096;2023-10-09T21:15:44;16.00;99.70
30385;DHT22;17181;51.002;4.096;2023-10-09T21:18:14;16.00;99.80
30385;DHT22;17181;51.002;4.096;2023-10-09T21:20:42;16.00;99.90
30385;DHT22;17181;51.002;4.096;2023-10-09T21:23:15;15.90;99.90
30385;DHT22;17181;51.002;4.096;2023-10-09T21:25:41;16.00;99.90
30385;DHT22;17181;51.002;4.096;2023-10-09T21:28:07;15.90;99.90
30385;DHT22;17181;51.002;4.096;2023-10-09T21:30:33;15.80;99.90
30385;DHT22;17181;51.002;4.096;2023-10-09T21:32:59;15.90;99.90
30385;DHT22;17181;51.002;4.096;2023-10-09T21:35:28;15.80;99.90
30385;DHT22;17181;51.002;4.096;2023-10-09T21:37:56;15.80;99.90
30385;DHT22;17181;51.002;4.096;2023-10-09T21:40:30;15.80;99.90
30385;DHT22;17181;51.002;4.096;2023-10-09T21:43:51;15.80;99.90
30385;DHT22;17181;51.002;4.096;2023-10-09T21:46:18;15.70;99.90
30385;DHT22;17181;51.002;4.096;2023-10-09T21:48:46;15.60;99.90
30385;DHT22;17181;51.002;4.096;2023-10-09T21:51:13;15.50;99.90
30385;DHT22;17181;51.002;4.096;2023-10-09T21:53:42;15.60;99.90
30385;DHT22;17181;51.002;4.096;2023-10-09T21:56:10;15.30;99.90
30385;DHT22;17181;51.002;4.096;2023-10-09T21:58:37;15.40;99.90
30385;DHT22;17181;51.002;4.096;2023-10-09T22:01:03;15.50;99.90
30385;DHT22;17181;51.002;4.096;2023-10-09T22:03:33;15.50;99.90
30385;DHT22;17181;51.002;4.096;2023-10-09T22:06:01;15.40;99.90
30385;DHT22;17181;51.002;4.096;2023-10-09T22:08:27;15.40;99.90
30385;DHT22;17181;51.002;4.096;2023-10-09T22:10:53;15.40;99.90
30385;DHT22;17181;51.002;4.096;2023-10-09T22:13:19;15.40;99.90
30385;DHT22;17181;51.002;4.096;2023-10-09T22:15:48;15.20;99.90
30385;DHT22;17181;51.002;4.096;2023-10-09T22:18:14;15.20;99.90
30385;DHT22;17181;51.002;4.096;2023-10-09T22:20:50;15.20;99.90
30385;DHT22;17181;51.002;4.096;2023-10-09T22:23:20;15.20;99.90
30385;DHT22;17181;51.002;4.096;2023-10-09T22:25:56;15.20;99.90
30385;DHT22;17181;51.002;4.096;2023-10-09T22:28:26;15.10;99.90
30385;DHT22;17181;51.002;4.096;2023-10-09T22:30:54;15.20;99.90
30385;DHT22;17181;51.002;4.096;2023-10-09T22:33:23;15.10;99.90
30385;DHT22;17181;51.002;4.096;2023-10-09T22:35:52;15.10;99.90
30385;DHT22;17181;51.002;4.096;2023-10-09T22:38:19;15.10;99.90
30385;DHT22;17181;51.002;4.096;2023-10-09T22:40:47;15.10;99.90
30385;DHT22;17181;51.002;4.096;2023-10-09T22:43:19;15.00;99.90
30385;DHT22;17181;51.002;4.096;2023-10-09T22:45:49;15.00;99.90
30385;DHT22;17181;51.002;4.096;2023-10-09T22:48:18;14.90;99.90
30385;DHT22;17181;51.002;4.096;2023-10-09T22:50:47;15.00;99.90
30385;DHT22;17181;51.002;4.096;2023-10-09T22:53:29;14.90;99.90
30385;DHT22;17181;51.002;4.096;2023-10-09T22:56:23;14.90;99.90
30385;DHT22;17181;51.002;4.096;2023-10-09T22:59:01;15.00;99.90
30385;DHT22;17181;51.002;4.096;2023-10-09T23:01:46;14.80;99.90
30385;DHT22;17181;51.002;4.096;2023-10-09T23:04:13;14.80;99.90
30385;DHT22;17181;51.002;4.096;2023-10-09T23:06:42;14.70;99.90
30385;DHT22;17181;51.002;4.096;2023-10-09T23:09:12;14.60;99.90
30385;DHT22;17181;51.002;4.096;2023-10-09T23:11:41;14.60;99.90
30385;DHT22;17181;51.002;4.096;2023-10-09T23:14:08;14.60;99.90
30385;DHT22;17181;51.002;4.096;2023-10-09T23:16:50;14.60;99.90
30385;DHT22;17181;51.002;4.096;2023-10-09T23:19:28;14.60;99.90
30385;DHT22;17181;51.002;4.096;2023-10-09T23:22:12;14.60;99.90
30385;DHT22;17181;51.002;4.096;2023-10-09T23:24:44;14.60;99.90
30385;DHT22;17181;51.002;4.096;2023-10-09T23:27:34;14.50;99.90
30385;DHT22;17181;51.002;4.096;2023-10-09T23:38:39;14.40;99.90
30385;DHT22;17181;51.002;4.096;2023-10-09T23:41:24;14.30;99.90
30385;DHT22;17181;51.002;4.096;2023-10-09T23:43:50;14.30;99.90
30385;DHT22;17181;51.002;4.096;2023-10-09T23:46:19;14.20;99.90
30385;DHT22;17181;51.002;4.096;2023-10-09T23:48:49;14.30;99.90
30385;DHT22;17181;51.002;4.096;2023-10-09T23:51:19;14.40;99.90
